Time;durP1;ratioP1;P1;durP2;ratioP2;P2;SDS_P1;SDS_P2;PMS_P1;PMS_P2;Temp;Humidity;BMP_temperature;BMP_pressure;BME280_temperature;BME280_humidity;BME280_pressure;Samples;Min_cycle;Max_cycle;Signal;HPM_P1;HPM_P2
2021/10/02 00:37:22;;;;;;;14.82;10.40;;;;;;;7.57;74.58;101576.94;4986048;28;20027;-59
2021/10/02 00:46:02;;;;;;;14.05;10.45;;;;;;;7.71;75.39;101592.69;4993354;28;20089;-59
2021/10/02 00:48:48;;;;;;;11.57;9.50;;;;;;;7.75;75.68;101581.59;5001586;28;20030;-57
2021/10/02 00:51:38;;;;;;;13.15;9.52;;;;;;;7.69;75.26;101566.88;4994522;28;20048;-57
2021/10/02 00:54:23;;;;;;;12.90;10.00;;;;;;;7.80;75.33;101584.31;4996754;28;20098;-58
2021/10/02 00:57:10;;;;;;;13.77;10.15;;;;;;;7.69;74.79;101577.19;5002238;28;20018;-57
2021/10/02 00:59:56;;;;;;;14.52;10.82;;;;;;;7.78;75.36;101581.66;5001249;28;20319;-57
2021/10/02 01:02:53;;;;;;;15.68;10.80;;;;;;;7.73;74.96;101578.13;5002420;28;20034;-56
2021/10/02 01:05:45;;;;;;;13.52;9.88;;;;;;;7.77;74.52;101587.69;5001216;28;20027;-58
2021/10/02 01:08:37;;;;;;;13.05;10.38;;;;;;;7.34;74.77;101532.59;5002284;28;20032;-57
2021/10/02 01:11:54;;;;;;;16.33;11.00;;;;;;;7.68;76.19;101588.34;5001616;28;20359;-58
2021/10/02 01:15:09;;;;;;;12.52;10.10;;;;;;;7.74;75.62;101585.91;5000140;28;20033;-58
2021/10/02 01:18:23;;;;;;;16.10;10.27;;;;;;;7.70;76.32;101583.22;4991948;28;20211;-58
2021/10/02 01:21:30;;;;;;;15.60;11.50;;;;;;;7.72;75.63;101582.41;4998848;28;20320;-58
2021/10/02 01:24:53;;;;;;;12.05;10.13;;;;;;;7.75;75.71;101577.34;5002255;28;20053;-58
2021/10/02 01:27:57;;;;;;;15.07;10.88;;;;;;;7.78;74.36;101587.72;5000609;28;20022;-58
2021/10/02 01:33:59;;;;;;;16.70;11.55;;;;;;;7.74;74.23;101578.16;5005986;28;20461;-58
2021/10/02 01:37:10;;;;;;;17.17;11.15;;;;;;;7.76;75.16;101584.22;5006462;28;20034;-58
2021/10/02 01:49:15;;;;;;;16.55;11.30;;;;;;;7.75;75.17;101571.28;5003674;28;20072;-58
2021/10/02 01:52:01;;;;;;;16.23;11.70;;;;;;;7.87;74.23;101568.09;4998976;28;20343;-57
2021/10/02 01:54:50;;;;;;;16.52;10.57;;;;;;;7.88;75.54;101587.88;5004632;28;20109;-57
2021/10/02 01:58:05;;;;;;;18.60;10.63;;;;;;;7.88;74.64;101586.19;5004326;28;20161;-57
2021/10/02 02:00:51;;;;;;;18.05;10.82;;;;;;;7.87;74.57;101581.00;4999651;28;20033;-57
2021/10/02 02:03:38;;;;;;;21.35;12.32;;;;;;;7.57;74.21;101525.38;5004272;28;20030;-58
2021/10/02 02:06:26;;;;;;;15.02;11.43;;;;;;;7.87;74.20;101573.25;5005202;28;20069;-58
2021/10/02 02:09:15;;;;;;;15.68;11.57;;;;;;;7.51;74.32;101530.38;5004413;28;20267;-58
2021/10/02 02:12:01;;;;;;;18.52;11.10;;;;;;;7.80;74.30;101568.81;5004260;28;20299;-58
2021/10/02 02:14:50;;;;;;;19.88;12.30;;;;;;;7.89;74.21;101579.31;5004649;28;20223;-58
2021/10/02 02:17:55;;;;;;;16.38;12.23;;;;;;;7.67;73.46;101589.19;5005220;28;20026;-58
2021/10/02 02:20:43;;;;;;;21.90;11.75;;;;;;;7.53;72.85;101528.72;5004922;28;20032;-59
2021/10/02 02:23:30;;;;;;;14.82;11.63;;;;;;;7.90;74.45;101578.47;5011607;28;20022;-59
2021/10/02 02:26:17;;;;;;;19.67;12.32;;;;;;;7.90;74.35;101583.66;5006071;28;20026;-58
2021/10/02 02:29:05;;;;;;;16.77;11.55;;;;;;;7.90;74.70;101586.22;5005699;28;20030;-58
2021/10/02 02:31:52;;;;;;;18.60;13.32;;;;;;;7.57;73.07;101533.97;5000251;28;20022;-58
2021/10/02 02:34:38;;;;;;;22.38;12.63;;;;;;;7.87;72.59;101584.44;5004997;28;20026;-58
2021/10/02 02:37:24;;;;;;;33.58;13.15;;;;;;;7.83;72.98;101579.19;5006465;28;20039;-58
2021/10/02 02:40:10;;;;;;;23.63;13.70;;;;;;;7.75;72.83;101581.59;5008876;28;20320;-59
2021/10/02 02:42:56;;;;;;;21.42;13.02;;;;;;;7.82;72.85;101580.03;5002651;28;20050;-58
2021/10/02 02:45:52;;;;;;;19.13;12.20;;;;;;;7.85;74.37;101580.09;5017937;28;20046;-58
2021/10/02 02:48:45;;;;;;;22.10;12.75;;;;;;;7.88;74.05;101582.72;5002893;28;20034;-58
2021/10/02 02:51:38;;;;;;;21.60;11.95;;;;;;;7.88;74.44;101593.03;5003092;28;20346;-59
2021/10/02 02:54:33;;;;;;;23.92;13.20;;;;;;;7.81;74.26;101562.81;5004609;28;20216;-58
2021/10/02 02:57:21;;;;;;;18.17;12.82;;;;;;;7.90;74.65;101575.91;5005145;28;20350;-58
2021/10/02 03:00:19;;;;;;;18.90;12.90;;;;;;;7.73;74.12;101550.63;5000254;28;20022;-58
2021/10/02 03:03:10;;;;;;;19.60;12.75;;;;;;;7.53;74.19;101515.84;5005033;28;20018;-58
2021/10/02 03:06:14;;;;;;;19.30;12.02;;;;;;;7.95;73.57;101585.47;5003936;28;20037;-58
2021/10/02 03:09:01;;;;;;;18.55;12.85;;;;;;;7.90;74.50;101571.59;5001313;28;20023;-58
2021/10/02 03:11:51;;;;;;;21.38;13.93;;;;;;;7.50;73.97;101502.88;4996385;28;20211;-58
2021/10/02 03:14:40;;;;;;;20.77;14.23;;;;;;;7.92;73.72;101575.09;5001534;28;20019;-58
2021/10/02 03:17:28;;;;;;;21.98;15.00;;;;;;;7.63;73.22;101524.63;5002605;28;20327;-59
2021/10/02 03:20:17;;;;;;;19.92;14.73;;;;;;;7.63;73.47;101525.50;5004020;28;20335;-58
2021/10/02 03:23:04;;;;;;;27.95;17.63;;;;;;;7.69;72.68;101564.28;5003700;28;20057;-58
2021/10/02 03:25:50;;;;;;;21.30;14.55;;;;;;;7.86;74.08;101577.53;5003676;28;20042;-59
2021/10/02 03:28:37;;;;;;;21.48;16.05;;;;;;;7.85;73.98;101569.78;5002882;28;20023;-59
2021/10/02 03:31:24;;;;;;;27.30;16.75;;;;;;;7.86;74.79;101577.53;5002912;28;20096;-59
2021/10/02 03:34:11;;;;;;;24.05;18.42;;;;;;;7.90;75.03;101581.91;5000672;28;20094;-58
2021/10/02 03:36:57;;;;;;;28.75;19.20;;;;;;;7.92;75.40;101581.94;5000834;28;20026;-58
2021/10/02 03:39:43;;;;;;;34.35;25.33;;;;;;;7.77;74.68;101574.78;5000827;28;20144;-58
2021/10/02 03:42:28;;;;;;;29.33;21.35;;;;;;;7.88;74.83;101585.31;5003307;28;20088;-58
2021/10/02 03:45:15;;;;;;;35.53;23.95;;;;;;;7.89;74.91;101585.34;5003135;28;20097;-59
2021/10/02 03:48:01;;;;;;;29.83;22.55;;;;;;;7.97;73.93;101584.63;5003379;28;20036;-58
2021/10/02 03:50:47;;;;;;;32.38;22.25;;;;;;;7.94;74.15;101581.16;5013367;28;20040;-60
2021/10/02 03:53:33;;;;;;;32.05;22.63;;;;;;;7.98;74.39;101589.84;5001896;28;20022;-59
2021/10/02 03:56:19;;;;;;;33.85;22.70;;;;;;;7.98;74.27;101581.19;5003339;28;20239;-59
2021/10/02 03:59:04;;;;;;;32.33;23.77;;;;;;;7.95;75.48;101580.31;5003192;28;20084;-59
2021/10/02 04:01:50;;;;;;;29.90;21.27;;;;;;;7.91;74.61;101582.81;5003454;28;20030;-59
2021/10/02 04:04:36;;;;;;;32.58;23.48;;;;;;;7.89;75.60;101589.63;5001361;28;20069;-59
2021/10/02 04:07:22;;;;;;;28.95;21.65;;;;;;;7.84;75.67;101576.66;4988060;28;20053;-59
2021/10/02 04:10:09;;;;;;;35.28;22.73;;;;;;;7.71;75.62;101547.16;4987315;28;20088;-59
2021/10/02 04:12:54;;;;;;;30.35;20.60;;;;;;;7.89;76.27;101577.59;5004316;28;20101;-59
2021/10/02 04:15:40;;;;;;;33.30;21.33;;;;;;;7.91;75.97;101578.50;5003781;28;20318;-59
2021/10/02 04:18:26;;;;;;;29.08;21.60;;;;;;;7.89;75.45;101579.31;5003336;28;20018;-59
2021/10/02 04:21:12;;;;;;;28.27;19.60;;;;;;;7.88;76.33;101573.28;5000697;28;20034;-59
2021/10/02 04:24:00;;;;;;;35.50;20.55;;;;;;;7.93;76.25;101578.53;5002770;28;20121;-59
2021/10/02 04:26:46;;;;;;;29.17;20.05;;;;;;;7.92;75.34;101574.22;5012906;28;20037;-59
2021/10/02 04:29:32;;;;;;;32.20;18.25;;;;;;;7.98;75.92;101574.34;5001182;28;20090;-60
2021/10/02 04:32:18;;;;;;;27.33;18.90;;;;;;;7.99;74.72;101576.06;5001723;28;20093;-60
2021/10/02 04:35:05;;;;;;;29.85;18.42;;;;;;;7.83;74.73;101545.66;5001383;28;20232;-60
2021/10/02 04:37:51;;;;;;;33.15;18.67;;;;;;;8.06;74.32;101585.66;5003306;28;20029;-60
2021/10/02 04:40:37;;;;;;;28.05;17.88;;;;;;;8.08;75.07;101583.13;5000647;28;20026;-60
2021/10/02 04:43:23;;;;;;;24.48;17.23;;;;;;;8.09;75.00;101580.59;5000376;28;20026;-59
2021/10/02 04:46:13;;;;;;;31.67;18.17;;;;;;;8.05;74.92;101590.81;5003285;28;20026;-58
2021/10/02 04:48:59;;;;;;;33.47;17.98;;;;;;;7.71;74.58;101583.25;5000941;28;20026;-59
2021/10/02 04:51:44;;;;;;;27.23;15.52;;;;;;;7.92;75.11;101594.84;5001617;28;20026;-59
2021/10/02 04:54:30;;;;;;;29.40;17.08;;;;;;;7.89;74.32;101580.16;5004358;28;20327;-59
2021/10/02 04:57:16;;;;;;;25.85;17.77;;;;;;;7.84;74.01;101586.06;5001882;28;20085;-60
2021/10/02 05:00:04;;;;;;;28.13;16.95;;;;;;;7.69;74.67;101535.06;5002112;28;20081;-60
2021/10/02 05:02:50;;;;;;;27.00;16.35;;;;;;;8.10;73.88;101592.63;5001035;28;20085;-59
2021/10/02 05:05:36;;;;;;;32.10;17.92;;;;;;;8.21;73.99;101597.13;4999780;28;20028;-59
2021/10/02 05:08:21;;;;;;;24.60;16.08;;;;;;;8.19;74.48;101593.66;4997364;28;20230;-59
2021/10/02 05:11:07;;;;;;;29.15;17.58;;;;;;;8.24;73.96;101592.06;4997245;28;20030;-58
2021/10/02 05:13:55;;;;;;;31.33;17.67;;;;;;;8.27;73.79;101598.13;5009867;28;20023;-58
2021/10/02 05:16:40;;;;;;;28.95;18.73;;;;;;;8.02;73.38;101609.66;4995875;28;20022;-58
2021/10/02 05:19:27;;;;;;;27.20;17.85;;;;;;;8.01;72.90;101607.94;4996782;28;20052;-59
2021/10/02 05:22:13;;;;;;;25.67;17.50;;;;;;;8.15;73.71;101612.50;4996081;28;20027;-59
2021/10/02 05:24:58;;;;;;;38.42;18.98;;;;;;;8.14;73.87;101614.22;5000793;28;20328;-60
2021/10/02 05:27:44;;;;;;;28.95;17.70;;;;;;;8.18;73.72;101608.28;4998127;28;21029;-59
2021/10/02 05:30:30;;;;;;;32.05;17.92;;;;;;;8.32;73.90;101605.09;4997671;28;20311;-59
2021/10/02 05:33:16;;;;;;;29.67;17.88;;;;;;;8.09;73.55;101608.97;4994676;28;20072;-59
2021/10/02 05:36:03;;;;;;;34.00;17.20;;;;;;;8.10;73.13;101605.53;4996889;28;20026;-59
2021/10/02 05:38:48;;;;;;;25.27;16.00;;;;;;;8.26;73.89;101605.84;4995718;28;20022;-59
2021/10/02 05:41:34;;;;;;;28.98;17.77;;;;;;;8.38;74.28;101603.50;5008674;28;20247;-60
2021/10/02 05:44:20;;;;;;;29.27;17.73;;;;;;;8.49;72.77;101589.94;5008240;28;20030;-60
2021/10/02 05:47:06;;;;;;;33.15;17.98;;;;;;;8.39;72.35;101596.63;4996953;28;20026;-60
2021/10/02 05:49:52;;;;;;;31.83;18.90;;;;;;;8.50;72.42;101599.44;5000273;28;20033;-60
2021/10/02 05:52:38;;;;;;;29.70;19.27;;;;;;;8.55;73.41;101603.84;5001053;28;20033;-59
2021/10/02 05:55:24;;;;;;;27.60;16.80;;;;;;;8.65;72.50;101604.91;4997788;28;20062;-60
2021/10/02 05:58:10;;;;;;;27.13;18.13;;;;;;;8.52;71.36;101600.34;4999145;28;20093;-63
2021/10/02 06:00:56;;;;;;;25.10;17.15;;;;;;;8.60;71.98;101603.94;4997200;28;20038;-63
2021/10/02 06:03:42;;;;;;;20.63;14.13;;;;;;;8.52;71.06;101598.59;5000359;28;20033;-63
2021/10/02 06:06:27;;;;;;;21.15;14.93;;;;;;;8.59;69.90;101604.75;5001566;28;20076;-60
2021/10/02 06:09:13;;;;;;;27.67;15.57;;;;;;;8.45;70.39;101565.78;5012818;28;20339;-60
2021/10/02 06:11:59;;;;;;;21.70;15.00;;;;;;;8.74;70.21;101607.63;5000618;28;20096;-61
2021/10/02 06:14:45;;;;;;;21.17;15.93;;;;;;;8.74;69.69;101605.03;5000138;28;20033;-61
2021/10/02 06:17:31;;;;;;;25.35;14.93;;;;;;;8.79;70.09;101608.59;4999679;28;20331;-61
2021/10/02 06:20:17;;;;;;;23.50;15.38;;;;;;;8.93;70.98;101595.00;5003424;28;20201;-61
2021/10/02 06:23:04;;;;;;;26.73;16.65;;;;;;;9.06;70.49;101603.84;4991421;28;20072;-61
2021/10/02 06:25:50;;;;;;;20.85;15.05;;;;;;;9.02;69.78;101605.50;5004613;28;20350;-61
2021/10/02 06:28:36;;;;;;;20.05;14.93;;;;;;;9.10;70.20;101606.47;5012134;28;20034;-61
2021/10/02 06:31:22;;;;;;;23.70;15.38;;;;;;;9.02;69.41;101595.19;5003738;28;20093;-61
2021/10/02 06:34:08;;;;;;;24.98;13.57;;;;;;;9.09;68.76;101596.13;5004658;28;20211;-62
2021/10/02 06:36:54;;;;;;;24.05;15.05;;;;;;;9.09;68.61;101609.94;5016820;28;20018;-61
2021/10/02 06:39:40;;;;;;;21.02;14.68;;;;;;;9.14;69.03;101613.44;5009317;28;20030;-61
2021/10/02 06:42:26;;;;;;;23.02;15.27;;;;;;;9.26;68.87;101612.78;5011081;28;20081;-61
2021/10/02 06:45:12;;;;;;;29.98;16.17;;;;;;;9.20;68.08;101609.22;5004411;28;20414;-61
2021/10/02 06:47:58;;;;;;;26.95;15.40;;;;;;;9.33;68.25;101605.97;5015218;28;20101;-62
2021/10/02 06:50:43;;;;;;;22.80;16.73;;;;;;;9.18;68.23;101605.72;5002832;28;20211;-61
2021/10/02 06:53:29;;;;;;;23.00;15.60;;;;;;;9.10;68.14;101613.38;5000571;28;20026;-61
2021/10/02 06:56:15;;;;;;;25.90;16.33;;;;;;;9.26;68.82;101614.47;5003615;28;20661;-62
2021/10/02 06:59:01;;;;;;;21.45;16.88;;;;;;;9.31;68.83;101610.25;5003757;28;20045;-62
2021/10/02 07:01:47;;;;;;;24.33;16.92;;;;;;;9.28;68.41;101612.81;5014669;28;20030;-62
2021/10/02 07:04:33;;;;;;;25.52;17.95;;;;;;;9.33;69.50;101611.13;5003867;28;20030;-61
2021/10/02 07:07:19;;;;;;;29.52;17.17;;;;;;;9.46;69.08;101614.78;5004139;28;20462;-61
2021/10/02 07:10:06;;;;;;;25.83;18.25;;;;;;;9.35;68.28;101619.81;5002394;28;20030;-61
2021/10/02 07:12:53;;;;;;;23.80;17.02;;;;;;;9.26;68.09;101574.00;5003537;28;20037;-62
2021/10/02 07:15:39;;;;;;;27.50;16.75;;;;;;;9.44;68.29;101613.91;5002412;28;20058;-62
2021/10/02 07:18:26;;;;;;;23.73;16.50;;;;;;;9.56;68.58;101608.03;5003276;28;20042;-61
2021/10/02 07:21:12;;;;;;;22.58;16.20;;;;;;;9.66;67.65;101607.28;5001667;28;20223;-60
2021/10/02 07:23:58;;;;;;;29.27;16.77;;;;;;;9.48;66.56;101608.78;5003723;28;20042;-61
2021/10/02 07:26:44;;;;;;;22.98;15.63;;;;;;;9.64;67.22;101601.25;5001119;28;20379;-60
2021/10/02 07:29:30;;;;;;;27.40;17.58;;;;;;;9.66;66.66;101610.78;5001067;28;20030;-60
2021/10/02 07:32:16;;;;;;;24.35;17.77;;;;;;;9.61;66.79;101614.13;5002297;28;20231;-60
2021/10/02 07:35:03;;;;;;;25.30;16.27;;;;;;;9.70;66.79;101611.66;5002959;28;20026;-60
2021/10/02 07:37:50;;;;;;;26.35;17.45;;;;;;;9.66;66.70;101605.59;5002292;28;20282;-60
2021/10/02 07:40:37;;;;;;;24.27;16.40;;;;;;;9.43;67.18;101558.69;5001209;28;20031;-60
2021/10/02 07:43:26;;;;;;;23.55;16.17;;;;;;;9.21;66.21;101554.97;5013290;28;20148;-60
2021/10/02 07:46:15;;;;;;;23.75;16.77;;;;;;;9.65;66.19;101609.03;5002264;28;20228;-59
2021/10/02 07:49:01;;;;;;;24.90;17.25;;;;;;;9.73;66.29;101601.34;4988965;28;20021;-59
2021/10/02 07:51:48;;;;;;;25.63;18.73;;;;;;;9.58;66.43;101617.53;5000140;28;20035;-59
2021/10/02 07:54:34;;;;;;;27.80;16.98;;;;;;;9.79;67.29;101605.72;4992085;28;20357;-60
2021/10/02 07:57:20;;;;;;;23.80;17.05;;;;;;;9.80;66.27;101615.25;5002808;28;20038;-60
2021/10/02 08:00:10;;;;;;;25.98;17.17;;;;;;;9.69;66.24;101555.63;5019551;28;20113;-60
2021/10/02 08:02:56;;;;;;;23.25;15.82;;;;;;;10.07;66.58;101601.78;5000997;28;20026;-61
2021/10/02 08:05:42;;;;;;;26.00;17.90;;;;;;;10.12;66.38;101597.53;4995993;28;20019;-61
2021/10/02 08:08:28;;;;;;;25.60;17.98;;;;;;;10.12;67.35;101602.72;5001198;28;20323;-61
2021/10/02 08:11:14;;;;;;;23.42;17.25;;;;;;;10.09;64.69;101604.38;5002038;28;20061;-60
2021/10/02 08:14:00;;;;;;;27.25;15.88;;;;;;;10.27;65.39;101608.91;5002218;28;20282;-60
2021/10/02 08:16:47;;;;;;;20.70;15.70;;;;;;;9.97;64.51;101554.19;5002393;28;20026;-60
2021/10/02 08:19:33;;;;;;;25.25;16.27;;;;;;;10.02;65.10;101603.47;4999744;28;20026;-61
2021/10/02 08:22:19;;;;;;;27.50;16.20;;;;;;;10.16;64.65;101603.59;5002361;28;20033;-60
2021/10/02 08:25:07;;;;;;;25.50;16.17;;;;;;;9.91;64.81;101546.38;4995985;28;20112;-60
2021/10/02 08:27:53;;;;;;;23.08;15.00;;;;;;;10.10;63.56;101596.63;5007159;28;20040;-60
2021/10/02 08:30:40;;;;;;;22.98;14.63;;;;;;;10.15;64.32;101576.00;5008078;28;20089;-60
2021/10/02 08:33:26;;;;;;;22.65;15.48;;;;;;;10.31;64.00;101597.72;5001825;28;20216;-58
2021/10/02 08:36:12;;;;;;;19.58;14.77;;;;;;;10.39;63.86;101588.34;4992245;28;20047;-61
2021/10/02 08:38:58;;;;;;;19.15;13.32;;;;;;;10.56;63.59;101590.22;4985653;28;20035;-60
2021/10/02 08:41:45;;;;;;;24.25;13.82;;;;;;;10.50;62.98;101598.81;4997240;28;20058;-60
2021/10/02 08:44:33;;;;;;;18.55;14.48;;;;;;;9.92;62.36;101555.00;5001590;28;20549;-60
2021/10/02 08:47:22;;;;;;;18.63;14.10;;;;;;;10.26;62.84;101595.09;5001540;28;20030;-60
2021/10/02 08:50:10;;;;;;;18.52;13.65;;;;;;;10.34;62.02;101595.19;5000839;28;20097;-60
2021/10/02 08:52:57;;;;;;;21.38;13.13;;;;;;;10.10;62.39;101595.75;4986193;28;20035;-60
2021/10/02 08:55:44;;;;;;;17.75;13.15;;;;;;;10.05;61.69;101600.91;5001258;28;20026;-60
2021/10/02 08:58:30;;;;;;;22.20;12.98;;;;;;;10.30;62.39;101601.16;5002168;28;20373;-60
2021/10/02 09:01:16;;;;;;;15.82;12.00;;;;;;;10.57;63.58;101595.44;4999893;28;20038;-62
2021/10/02 09:04:02;;;;;;;21.65;12.63;;;;;;;10.53;61.84;101597.13;5000694;28;20069;-61
2021/10/02 09:06:48;;;;;;;19.08;13.73;;;;;;;10.51;61.03;101591.06;5000189;28;20030;-60
2021/10/02 09:09:34;;;;;;;15.80;12.40;;;;;;;10.67;62.71;101586.03;4999042;28;20231;-60
2021/10/02 09:12:21;;;;;;;18.42;13.57;;;;;;;10.57;61.92;101587.66;4999541;28;20342;-60
2021/10/02 09:15:08;;;;;;;19.80;13.32;;;;;;;10.59;61.36;101590.25;5001344;28;20053;-60
2021/10/02 09:17:56;;;;;;;20.80;14.60;;;;;;;10.42;61.35;101590.09;5000613;28;20383;-60
2021/10/02 09:20:41;;;;;;;19.52;12.90;;;;;;;10.42;61.42;101588.38;5002407;28;20108;-60
2021/10/02 09:23:27;;;;;;;16.55;12.48;;;;;;;10.67;62.52;101583.44;4984624;28;20056;-61
2021/10/02 09:26:13;;;;;;;18.10;12.70;;;;;;;10.71;61.48;101587.78;4984827;28;20035;-60
2021/10/02 09:28:59;;;;;;;15.52;12.68;;;;;;;10.81;61.58;101592.19;5000154;28;20026;-61
2021/10/02 09:31:45;;;;;;;17.92;13.25;;;;;;;10.80;61.61;101590.47;5001436;28;20038;-61
2021/10/02 09:34:31;;;;;;;15.63;12.23;;;;;;;10.82;61.04;101582.72;5003337;28;22076;-60
2021/10/02 09:37:27;;;;;;;16.17;11.63;;;;;;;10.92;61.93;101583.66;5000741;28;20124;-60
2021/10/02 09:40:17;;;;;;;14.32;11.68;;;;;;;10.57;61.16;101524.63;5001411;28;20342;-60
2021/10/02 09:43:04;;;;;;;17.65;12.45;;;;;;;10.82;61.07;101578.38;5006089;28;20160;-59
2021/10/02 09:45:51;;;;;;;16.98;12.10;;;;;;;10.55;61.71;101581.59;5007758;28;20097;-60
2021/10/02 09:48:37;;;;;;;17.65;11.00;;;;;;;10.46;59.95;101578.91;4999825;28;20102;-60
2021/10/02 09:51:40;;;;;;;16.40;11.88;;;;;;;10.34;59.85;101531.31;4998034;28;20027;-61
2021/10/02 09:54:37;;;;;;;15.77;11.02;;;;;;;10.78;61.39;101576.63;4998486;28;20327;-61
2021/10/02 09:57:23;;;;;;;15.25;10.75;;;;;;;10.54;59.92;101579.84;5003862;28;20041;-59
2021/10/02 10:00:12;;;;;;;13.02;10.70;;;;;;;9.98;59.92;101519.72;5030675;28;20031;-59
2021/10/02 10:03:02;;;;;;;14.40;10.30;;;;;;;10.25;60.08;101514.81;5004898;28;20030;-60
2021/10/02 10:05:50;;;;;;;20.05;10.82;;;;;;;10.57;60.66;101571.25;5004181;28;20018;-60
2021/10/02 10:08:36;;;;;;;15.18;9.63;;;;;;;10.71;60.67;101572.25;5004357;28;20327;-60
2021/10/02 10:11:22;;;;;;;15.73;9.95;;;;;;;10.80;60.87;101568.84;5004339;28;20038;-60
2021/10/02 10:14:08;;;;;;;20.02;10.88;;;;;;;10.86;61.74;101580.16;5004225;28;20026;-60
2021/10/02 10:16:57;;;;;;;17.60;11.27;;;;;;;10.74;60.28;101574.84;5020132;28;20295;-58
2021/10/02 10:19:45;;;;;;;20.33;12.13;;;;;;;10.67;60.60;101573.06;5002973;28;20041;-60
2021/10/02 10:22:32;;;;;;;18.42;11.10;;;;;;;10.71;61.68;101569.66;4984148;28;20231;-59
2021/10/02 10:25:18;;;;;;;11.90;10.10;;;;;;;10.68;60.81;101570.47;5002678;28;20045;-59
2021/10/02 10:28:07;;;;;;;17.60;11.45;;;;;;;10.43;60.98;101506.34;5003905;28;20101;-59
2021/10/02 10:30:53;;;;;;;12.30;10.00;;;;;;;10.90;60.93;101569.81;5016220;28;20101;-59
2021/10/02 10:33:43;;;;;;;13.77;10.80;;;;;;;10.55;59.55;101526.34;4989564;28;20026;-59
2021/10/02 10:36:31;;;;;;;13.57;10.48;;;;;;;10.91;60.80;101564.63;4987029;28;20081;-60
2021/10/02 10:39:17;;;;;;;13.13;10.25;;;;;;;10.91;60.79;101561.19;5016286;28;20022;-60
2021/10/02 10:42:05;;;;;;;15.45;11.60;;;;;;;10.88;61.34;101552.50;5001557;28;20043;-59
2021/10/02 10:44:51;;;;;;;14.70;11.82;;;;;;;10.75;60.65;101561.03;5000199;28;20040;-59
2021/10/02 10:47:37;;;;;;;14.88;10.73;;;;;;;10.93;60.47;101557.75;5003341;28;20029;-60
2021/10/02 10:50:24;;;;;;;18.88;11.32;;;;;;;10.61;60.66;101506.50;5003551;28;20026;-59
2021/10/02 10:53:12;;;;;;;16.25;11.73;;;;;;;10.80;59.64;101559.38;4996818;28;20029;-60
2021/10/02 10:55:58;;;;;;;15.82;11.30;;;;;;;10.74;59.46;101561.91;5003321;28;20215;-59
2021/10/02 10:58:58;;;;;;;16.95;12.23;;;;;;;10.77;60.53;101542.91;5001748;28;20022;-59
2021/10/02 11:01:47;;;;;;;21.02;11.95;;;;;;;10.60;61.09;101503.91;4994732;28;20031;-59
2021/10/02 11:04:32;;;;;;;17.15;11.30;;;;;;;10.91;60.16;101556.84;5005561;28;20022;-59
2021/10/02 11:07:50;;;;;;;16.25;12.00;;;;;;;10.86;59.54;101556.81;5006075;28;20192;-59
2021/10/02 11:13:29;;;;;;;16.63;11.68;;;;;;;10.91;59.84;101554.25;5003202;28;20030;-59
2021/10/02 11:16:34;;;;;;;17.10;12.32;;;;;;;10.94;60.47;101566.38;5001979;28;20062;-59
2021/10/02 11:19:43;;;;;;;18.83;11.68;;;;;;;10.70;60.58;101505.72;5002818;28;20046;-59
2021/10/02 11:23:13;;;;;;;18.58;13.50;;;;;;;10.98;60.70;101548.25;4988658;28;20209;-59
2021/10/02 11:26:21;;;;;;;19.13;12.88;;;;;;;10.85;59.83;101544.72;4996092;28;20028;-59
2021/10/02 11:29:19;;;;;;;17.83;12.25;;;;;;;10.78;60.99;101514.41;5002790;28;20054;-60
2021/10/02 11:32:17;;;;;;;17.50;11.93;;;;;;;11.04;60.67;101543.13;5002931;28;20030;-59
2021/10/02 11:35:17;;;;;;;16.27;11.18;;;;;;;11.06;60.21;101543.16;5006661;28;20098;-58
2021/10/02 11:38:07;;;;;;;17.00;12.85;;;;;;;11.01;59.94;101552.59;5000149;28;20022;-59
2021/10/02 11:40:53;;;;;;;16.38;12.30;;;;;;;11.07;59.98;101550.03;4999977;28;20050;-59
2021/10/02 11:43:53;;;;;;;14.02;10.88;;;;;;;11.10;60.75;101536.22;4997218;28;20037;-59
2021/10/02 11:46:39;;;;;;;14.63;10.35;;;;;;;11.22;60.75;101541.50;4988988;28;20089;-59
2021/10/02 11:49:25;;;;;;;16.77;12.38;;;;;;;11.17;60.36;101541.50;4999025;28;20041;-59
2021/10/02 11:52:12;;;;;;;19.08;13.73;;;;;;;10.95;59.17;101537.00;4992793;28;20038;-59
2021/10/02 11:55:31;;;;;;;14.98;12.23;;;;;;;10.94;59.75;101537.88;5016082;28;20025;-59
2021/10/02 11:58:17;;;;;;;14.27;12.00;;;;;;;11.02;61.42;101542.25;5008523;28;20040;-59
2021/10/02 12:01:03;;;;;;;20.10;12.40;;;;;;;11.07;61.56;101525.84;5001046;28;20056;-59
2021/10/02 12:03:58;;;;;;;17.58;13.20;;;;;;;11.06;60.79;101522.41;5001054;28;20038;-59
2021/10/02 12:06:45;;;;;;;20.25;13.93;;;;;;;10.67;59.72;101490.16;5000873;28;20056;-58
2021/10/02 12:09:33;;;;;;;15.43;12.18;;;;;;;11.07;60.28;101528.44;4998815;28;20037;-60
2021/10/02 12:12:21;;;;;;;22.40;13.70;;;;;;;10.72;59.57;101478.09;4995430;28;20034;-60
2021/10/02 12:15:07;;;;;;;17.25;11.68;;;;;;;11.00;59.56;101518.03;5000783;28;20031;-61
2021/10/02 12:17:55;;;;;;;18.17;13.02;;;;;;;11.08;59.90;101523.25;5015527;28;20034;-61
2021/10/02 12:20:43;;;;;;;16.98;12.88;;;;;;;11.06;59.72;101527.59;5002404;28;20072;-61
2021/10/02 12:23:29;;;;;;;17.52;12.15;;;;;;;11.09;60.24;101521.53;5003089;28;20031;-60
2021/10/02 12:26:17;;;;;;;18.60;13.20;;;;;;;10.95;59.33;101526.66;4999188;28;20331;-59
2021/10/02 12:29:05;;;;;;;15.95;13.27;;;;;;;10.49;58.68;101471.03;5001084;28;20255;-58
2021/10/02 12:31:59;;;;;;;18.80;12.77;;;;;;;10.38;59.19;101467.47;5002238;28;20041;-58
2021/10/02 12:34:56;;;;;;;17.42;11.48;;;;;;;10.76;59.09;101523.03;5001349;28;20341;-60
2021/10/02 12:37:42;;;;;;;14.40;11.38;;;;;;;10.89;59.88;101519.69;4999285;28;22365;-59
2021/10/02 12:40:28;;;;;;;15.88;11.98;;;;;;;10.95;59.69;101521.47;4998830;28;20034;-60
2021/10/02 12:43:13;;;;;;;17.92;13.65;;;;;;;10.97;59.69;101525.78;5000453;28;20038;-60
2021/10/02 12:46:00;;;;;;;17.85;12.43;;;;;;;10.76;59.43;101520.44;4997291;28;20026;-60
2021/10/02 12:48:46;;;;;;;19.73;12.45;;;;;;;10.80;59.37;101517.03;5000983;28;20108;-60
2021/10/02 12:51:33;;;;;;;18.88;12.63;;;;;;;10.91;59.93;101511.91;5001366;28;20025;-60
2021/10/02 12:54:23;;;;;;;19.40;12.20;;;;;;;10.81;59.55;101493.69;4999343;28;20101;-60
2021/10/02 12:57:13;;;;;;;17.73;11.50;;;;;;;10.78;59.86;101516.16;5001696;28;20058;-60
2021/10/02 13:00:13;;;;;;;24.75;13.13;;;;;;;10.40;59.44;101452.81;5001119;28;20037;-60
2021/10/02 13:03:03;;;;;;;18.17;11.70;;;;;;;10.82;60.18;101502.38;4996534;28;20018;-60
2021/10/02 13:05:59;;;;;;;16.80;10.98;;;;;;;10.83;59.86;101497.19;4996005;28;20069;-59
2021/10/02 13:08:45;;;;;;;15.77;10.98;;;;;;;10.90;60.09;101492.03;4996493;28;20615;-58
2021/10/02 13:11:31;;;;;;;15.45;10.93;;;;;;;10.91;60.32;101494.63;5002218;28;20053;-58
2021/10/02 13:14:37;;;;;;;17.10;11.60;;;;;;;10.85;59.59;101500.66;5002832;28;20037;-58
2021/10/02 13:17:23;;;;;;;18.73;12.38;;;;;;;10.63;59.70;101484.09;4999030;28;20046;-59
2021/10/02 13:20:17;;;;;;;16.13;11.82;;;;;;;10.49;59.89;101439.94;4988100;28;20327;-59
2021/10/02 13:23:18;;;;;;;18.65;11.55;;;;;;;10.88;59.86;101489.44;5002160;28;20100;-59
2021/10/02 13:26:11;;;;;;;20.23;13.02;;;;;;;10.88;59.68;101494.63;5009510;28;20074;-59
2021/10/02 13:28:57;;;;;;;17.27;12.50;;;;;;;10.92;60.32;101490.34;5017810;28;20044;-60
2021/10/02 13:31:43;;;;;;;21.63;11.93;;;;;;;10.90;59.90;101479.06;5005411;28;20040;-60
2021/10/02 13:34:28;;;;;;;14.55;10.45;;;;;;;10.99;60.06;101484.34;4991220;28;20385;-60
2021/10/02 13:37:22;;;;;;;20.40;11.80;;;;;;;10.58;59.85;101420.13;4990484;28;20030;-59
2021/10/02 13:40:08;;;;;;;12.65;9.70;;;;;;;10.98;60.17;101480.00;5005891;28;20342;-59
2021/10/02 13:42:55;;;;;;;15.18;11.68;;;;;;;10.96;59.77;101476.50;5005153;28;20046;-59
2021/10/02 13:45:43;;;;;;;15.60;11.27;;;;;;;10.92;59.07;101493.78;5005902;28;20121;-59
2021/10/02 13:48:31;;;;;;;15.23;10.60;;;;;;;10.96;60.42;101480.00;5004225;28;20061;-58
2021/10/02 13:51:16;;;;;;;15.40;10.70;;;;;;;10.94;60.11;101478.25;5004585;28;20331;-59